createdAt,value
2022-09-15T00:00:50.305Z,98106.75
2022-09-15T00:03:52.661Z,98088.34
2022-09-15T00:06:54.910Z,98080.56
2022-09-15T00:09:57.281Z,98085.22
2022-09-15T00:12:59.760Z,98081.72
2022-09-15T00:16:02.590Z,98089.50
2022-09-15T00:19:04.976Z,98090.09
2022-09-15T00:22:07.148Z,98070.72
2022-09-15T00:25:10.205Z,98053.84
2022-09-15T00:28:14.202Z,98036.22
2022-09-15T00:31:20.230Z,98009.88
2022-09-15T00:34:22.520Z,98005.09
2022-09-15T00:37:24.941Z,98016.94
2022-09-15T00:40:27.502Z,98011.78
2022-09-15T00:43:50.458Z,98036.81
2022-09-15T00:47:17.801Z,98069.00
2022-09-15T00:50:19.068Z,98086.09
2022-09-15T00:53:21.429Z,98106.06
2022-09-15T00:56:23.758Z,98119.00
2022-09-15T00:59:27.967Z,98137.62
2022-09-15T01:02:33.113Z,98152.47
2022-09-15T01:05:40.357Z,98160.81
2022-09-15T01:09:03.500Z,98149.94
2022-09-15T01:12:06.312Z,98131.06
2022-09-15T01:15:08.996Z,98136.22
2022-09-15T01:18:31.384Z,98145.72
2022-09-15T01:22:02.069Z,98154.34
2022-09-15T01:25:27.800Z,98148.63
2022-09-15T01:28:46.266Z,98154.53
2022-09-15T01:32:16.697Z,98150.97
2022-09-15T01:35:27.721Z,98148.06
2022-09-15T01:39:03.173Z,98142.91
2022-09-15T01:42:07.572Z,98136.66
2022-09-15T01:45:14.353Z,98148.69
2022-09-15T01:48:22.614Z,98141.87
2022-09-15T01:51:25.868Z,98147.72
2022-09-15T01:54:35.574Z,98142.78
2022-09-15T01:57:37.773Z,98154.53
2022-09-15T02:00:45.009Z,98152.97
2022-09-15T02:03:56.684Z,98142.97
2022-09-15T02:07:06.441Z,98143.47
2022-09-15T02:10:13.472Z,98142.22
2022-09-15T02:13:32.371Z,98134.94
2022-09-15T02:16:35.406Z,98150.63
2022-09-15T02:19:41.743Z,98138.78
2022-09-15T02:22:48.282Z,98142.28
2022-09-15T02:25:54.154Z,98137.94
2022-09-15T02:28:58.161Z,98140.03
2022-09-15T02:32:06.772Z,98139.59
2022-09-15T02:35:10.138Z,98131.56
2022-09-15T02:38:12.897Z,98137.75
2022-09-15T02:41:15.050Z,98131.28
2022-09-15T02:44:17.254Z,98136.78
2022-09-15T02:47:19.768Z,98130.84
2022-09-15T02:50:21.948Z,98140.78
2022-09-15T02:53:24.196Z,98130.56
2022-09-15T02:56:26.499Z,98132.25
2022-09-15T02:59:48.616Z,98129.84
2022-09-15T03:02:52.362Z,98134.16
2022-09-15T03:05:54.666Z,98148.59
2022-09-15T03:09:01.255Z,98147.94
2022-09-15T03:12:03.772Z,98137.59
2022-09-15T03:15:07.971Z,98139.19
2022-09-15T03:18:10.149Z,98151.13
2022-09-15T03:21:13.781Z,98142.59
2022-09-15T03:24:16.193Z,98140.22
2022-09-15T03:27:18.352Z,98147.41
2022-09-15T03:30:20.629Z,98151.72
2022-09-15T03:33:24.417Z,98146.66
2022-09-15T03:36:26.643Z,98147.19
2022-09-15T03:39:28.835Z,98148.50
2022-09-15T03:42:31.141Z,98138.50
2022-09-15T03:45:33.352Z,98144.62
2022-09-15T03:48:36.354Z,98154.34
2022-09-15T03:51:38.533Z,98142.41
2022-09-15T03:54:40.721Z,98146.44
2022-09-15T03:57:42.881Z,98150.97
2022-09-15T04:00:46.751Z,98140.72
2022-09-15T04:03:51.304Z,98140.97
2022-09-15T04:06:53.796Z,98154.69
2022-09-15T04:09:55.969Z,98155.97
2022-09-15T04:12:58.145Z,98161.16
2022-09-15T04:16:01.912Z,98157.63
2022-09-15T04:19:04.617Z,98169.22
2022-09-15T04:22:07.027Z,98177.13
2022-09-15T04:25:09.431Z,98178.00
2022-09-15T04:28:11.584Z,98172.69
2022-09-15T04:31:15.815Z,98164.41
2022-09-15T04:34:18.440Z,98162.81
2022-09-15T04:37:20.616Z,98157.94
2022-09-15T04:40:23.012Z,98159.88
2022-09-15T04:43:26.411Z,98171.28
2022-09-15T04:46:28.684Z,98176.97
2022-09-15T04:49:31.763Z,98184.25
2022-09-15T04:52:33.919Z,98189.56
2022-09-15T04:55:36.518Z,98181.28
2022-09-15T04:58:40.723Z,98184.19
2022-09-15T05:01:43.684Z,98175.28
2022-09-15T05:04:48.443Z,98179.59
2022-09-15T05:07:50.741Z,98185.63
2022-09-15T05:10:53.344Z,98185.13
2022-09-15T05:13:55.526Z,98177.31
2022-09-15T05:16:57.692Z,98170.66
2022-09-15T05:20:00.711Z,98185.06
2022-09-15T05:23:03.496Z,98198.75
2022-09-15T05:26:07.956Z,98200.28
2022-09-15T05:29:10.126Z,98207.25
2022-09-15T05:32:12.478Z,98215.44
2022-09-15T05:35:14.627Z,98213.38
2022-09-15T05:38:16.967Z,98206.91
2022-09-15T05:41:19.551Z,98222.88
2022-09-15T05:44:21.699Z,98232.63
2022-09-15T05:47:23.880Z,98243.09
2022-09-15T05:50:26.059Z,98239.31
2022-09-15T05:53:28.533Z,98236.31
2022-09-15T05:56:31.280Z,98233.31
2022-09-15T05:59:36.060Z,98233.09
2022-09-15T06:02:38.311Z,98239.81
2022-09-15T06:05:40.536Z,98232.16
2022-09-15T06:08:52.803Z,98219.66
2022-09-15T06:11:57.703Z,98221.16
2022-09-15T06:14:59.926Z,98231.31
2022-09-15T06:18:02.790Z,98226.97
2022-09-15T06:21:16.899Z,98241.75
2022-09-15T06:24:19.139Z,98241.63
2022-09-15T06:27:21.409Z,98242.63
2022-09-15T06:30:23.602Z,98239.38
2022-09-15T06:33:27.104Z,98243.44
2022-09-15T06:36:30.399Z,98251.25
2022-09-15T06:39:33.094Z,98266.28
2022-09-15T06:42:35.240Z,98270.78
2022-09-15T06:45:37.428Z,98281.50
2022-09-15T06:48:40.804Z,98269.81
2022-09-15T06:51:43.030Z,98274.06
2022-09-15T06:54:45.264Z,98274.19
2022-09-15T06:57:47.407Z,98274.94
2022-09-15T07:00:49.728Z,98263.87
2022-09-15T07:03:52.585Z,98275.56
2022-09-15T07:06:54.908Z,98275.19
2022-09-15T07:09:57.106Z,98270.66
2022-09-15T07:13:01.253Z,98275.62
2022-09-15T07:16:05.174Z,98266.84
2022-09-15T07:19:07.505Z,98271.44
2022-09-15T07:22:11.976Z,98295.88
2022-09-15T07:25:14.280Z,98295.63
2022-09-15T07:28:16.950Z,98302.47
2022-09-15T07:31:21.641Z,98303.28
2022-09-15T07:34:23.832Z,98301.25
2022-09-15T07:37:26.000Z,98290.47
2022-09-15T07:40:29.080Z,98293.66
2022-09-15T07:43:31.503Z,98305.44
2022-09-15T07:46:34.146Z,98315.16
2022-09-15T07:49:36.310Z,98317.88
2022-09-15T07:52:38.496Z,98318.25
2022-09-15T07:55:40.724Z,98313.28
2022-09-15T07:58:42.950Z,98323.44
2022-09-15T08:01:45.185Z,98309.97
2022-09-15T08:04:47.430Z,98323.75
2022-09-15T08:07:50.444Z,98322.47
2022-09-15T08:10:52.952Z,98330.44
2022-09-15T08:13:55.146Z,98323.78
2022-09-15T08:17:01.016Z,98329.28
2022-09-15T08:20:04.247Z,98321.47
2022-09-15T08:23:06.437Z,98327.69
2022-09-15T08:26:13.791Z,98320.38
2022-09-15T08:29:17.934Z,98323.25
2022-09-15T08:32:20.144Z,98315.97
2022-09-15T08:35:22.315Z,98314.00
2022-09-15T08:38:24.629Z,98308.03
2022-09-15T08:41:33.095Z,98316.59
2022-09-15T08:45:17.930Z,98317.31
2022-09-15T08:48:24.820Z,98313.88
2022-09-15T08:51:34.145Z,98303.75
2022-09-15T08:54:36.399Z,98296.06
2022-09-15T08:57:38.672Z,98288.00
2022-09-15T09:00:41.716Z,98279.84
2022-09-15T09:03:48.746Z,98287.00
2022-09-15T09:06:56.913Z,98284.28
2022-09-15T09:10:14.563Z,98264.25
2022-09-15T09:13:35.281Z,98258.63
2022-09-15T09:17:03.711Z,98264.16
2022-09-15T09:20:29.578Z,98258.38
2022-09-15T09:23:34.328Z,98258.00
2022-09-15T09:26:36.687Z,98254.69
2022-09-15T09:29:50.590Z,98255.59
2022-09-15T09:33:07.992Z,98248.94
2022-09-15T09:36:11.961Z,98251.34
2022-09-15T09:39:15.348Z,98235.44
2022-09-15T09:42:18.808Z,98234.19
2022-09-15T09:45:21.092Z,98244.97
2022-09-15T09:48:25.239Z,98244.59
2022-09-15T09:51:49.093Z,98238.78
2022-09-15T09:55:03.938Z,98230.44
2022-09-15T09:58:13.523Z,98221.03
2022-09-15T10:01:17.689Z,98214.72
2022-09-15T10:04:21.092Z,98222.88
2022-09-15T10:07:26.194Z,98213.69
2022-09-15T10:10:32.402Z,98222.25
2022-09-15T10:13:35.939Z,98206.22
2022-09-15T10:16:38.196Z,98204.50
2022-09-15T10:19:46.402Z,98197.91
2022-09-15T10:22:48.701Z,98197.41
2022-09-15T10:26:00.308Z,98188.09
2022-09-15T10:29:16.818Z,98183.44
2022-09-15T10:32:26.262Z,98172.88
2022-09-15T10:35:33.028Z,98167.56
2022-09-15T10:38:44.503Z,98155.25
2022-09-15T10:42:02.144Z,98153.03
2022-09-15T10:45:04.271Z,98159.28
2022-09-15T10:48:15.489Z,98163.91
2022-09-15T10:51:25.546Z,98172.22
2022-09-15T10:55:04.876Z,98172.78
2022-09-15T10:58:23.583Z,98173.25
2022-09-15T11:01:28.640Z,98170.28
2022-09-15T11:04:44.495Z,98175.62
2022-09-15T11:07:54.292Z,98171.97
2022-09-15T11:11:16.645Z,98169.72
2022-09-15T11:14:42.056Z,98155.87
2022-09-15T11:18:15.314Z,98158.81
2022-09-15T11:21:25.588Z,98157.22
2022-09-15T11:24:54.020Z,98158.31
2022-09-15T11:28:04.631Z,98150.06
2022-09-15T11:31:17.226Z,98157.69
2022-09-15T11:34:41.432Z,98159.81
2022-09-15T11:37:46.193Z,98146.84
2022-09-15T11:40:53.133Z,98144.91
2022-09-15T11:44:17.241Z,98145.47
2022-09-15T11:47:36.746Z,98145.53
2022-09-15T11:50:41.673Z,98140.78
2022-09-15T11:54:05.985Z,98137.69
2022-09-15T11:57:18.192Z,98122.09
2022-09-15T12:00:20.943Z,98114.28
2022-09-15T12:03:25.579Z,98103.41
2022-09-15T12:07:02.193Z,98104.88
2022-09-15T12:10:18.085Z,98099.59
2022-09-15T12:13:22.741Z,98091.66
2022-09-15T12:16:25.458Z,98086.75
2022-09-15T12:19:33.930Z,98088.63
2022-09-15T12:23:00.094Z,98111.97
2022-09-15T12:26:28.932Z,98109.63
2022-09-15T12:29:41.176Z,98100.72
2022-09-15T12:32:44.547Z,98086.59
2022-09-15T12:35:46.986Z,98082.81
2022-09-15T12:38:49.500Z,98072.03
2022-09-15T12:42:00.767Z,98062.16
2022-09-15T12:45:02.967Z,98072.87
2022-09-15T12:48:07.642Z,98093.16
2022-09-15T12:51:10.942Z,98084.22
2022-09-15T12:54:19.481Z,98085.22
2022-09-15T12:57:33.181Z,98083.44
2022-09-15T13:00:37.977Z,98083.62
2022-09-15T13:03:41.985Z,98071.28
2022-09-15T13:07:16.174Z,98078.78
2022-09-15T13:10:30.852Z,98100.34
2022-09-15T13:13:44.602Z,98107.78
2022-09-15T13:16:52.763Z,98082.56
2022-09-15T13:19:59.880Z,98075.59
2022-09-15T13:23:03.754Z,98088.78
2022-09-15T13:26:07.231Z,98086.22
2022-09-15T13:29:14.363Z,98076.69
2022-09-15T13:32:32.615Z,98057.22
2022-09-15T13:35:59.354Z,98078.91
2022-09-15T13:39:04.369Z,98086.41
2022-09-15T13:42:21.997Z,98086.91
2022-09-15T13:45:49.540Z,98082.56
2022-09-15T13:49:10.483Z,98088.28
2022-09-15T13:52:18.555Z,98107.00
2022-09-15T13:55:25.385Z,98113.19
2022-09-15T14:01:50.253Z,98117.78
2022-09-15T14:04:52.508Z,98114.28
2022-09-15T14:08:01.757Z,98112.56
2022-09-15T14:11:10.107Z,98111.03
2022-09-15T14:14:30.095Z,98115.97
2022-09-15T14:17:34.211Z,98102.78
2022-09-15T14:20:36.457Z,98077.97
2022-09-15T14:23:46.091Z,98069.22
2022-09-15T14:26:50.645Z,98080.09
2022-09-15T14:29:55.397Z,98087.00
2022-09-15T14:33:02.240Z,98093.06
2022-09-15T14:36:13.482Z,98073.00
2022-09-15T14:39:20.397Z,98083.59
2022-09-15T14:42:30.685Z,98091.38
2022-09-15T14:49:12.491Z,98079.78
2022-09-15T14:52:27.283Z,98083.22
2022-09-15T14:55:52.280Z,98095.16
2022-09-15T14:58:56.776Z,98118.53
2022-09-15T15:02:27.627Z,98122.38
2022-09-15T15:05:34.293Z,98117.69
2022-09-15T15:08:43.086Z,98118.34
2022-09-15T15:11:45.650Z,98118.41
2022-09-15T15:14:48.012Z,98138.78
2022-09-15T15:17:54.607Z,98135.16
2022-09-15T15:20:57.354Z,98129.31
2022-09-15T15:23:59.597Z,98127.22
2022-09-15T15:27:33.744Z,98119.19
2022-09-15T15:30:44.747Z,98107.47
2022-09-15T15:33:57.211Z,98075.13
2022-09-15T15:37:04.017Z,98060.66
2022-09-15T15:40:15.018Z,98040.78
2022-09-15T15:43:23.839Z,98052.66
2022-09-15T15:46:45.829Z,98064.47
2022-09-15T15:50:11.803Z,98078.91
2022-09-15T15:53:10.287Z,98125.44
2022-09-15T15:56:13.002Z,98106.62
2022-09-15T15:59:16.646Z,98100.72
2022-09-15T16:02:19.002Z,98087.81
2022-09-15T16:05:22.314Z,98075.38
2022-09-15T16:08:33.064Z,98063.81
2022-09-15T16:11:35.258Z,98050.00
2022-09-15T16:14:37.477Z,98058.06
2022-09-15T16:17:44.348Z,98061.34
2022-09-15T16:20:49.039Z,98062.12
2022-09-15T16:23:51.227Z,98048.78
2022-09-15T16:26:53.984Z,98044.19
2022-09-15T16:29:56.228Z,98041.69
2022-09-15T16:32:58.968Z,98033.91
2022-09-15T16:36:07.061Z,98031.53
2022-09-15T16:39:09.704Z,98026.87
2022-09-15T16:42:12.017Z,98042.66
2022-09-15T16:45:25.314Z,98037.84
2022-09-15T16:48:27.514Z,98037.84
2022-09-15T16:51:31.585Z,98046.16
2022-09-15T16:54:34.107Z,98047.53
2022-09-15T16:57:36.380Z,98044.03
2022-09-15T17:00:39.658Z,98040.25
2022-09-15T17:03:43.350Z,98050.22
2022-09-15T17:06:46.278Z,98057.47
2022-09-15T17:09:49.870Z,98065.25
2022-09-15T17:12:52.536Z,98069.09
2022-09-15T17:15:55.251Z,98073.25
2022-09-15T17:18:57.518Z,98079.38
2022-09-15T17:21:59.705Z,98073.28
2022-09-15T17:25:01.824Z,98052.91
2022-09-15T17:28:04.105Z,98053.31
2022-09-15T17:31:14.127Z,98070.22
2022-09-15T17:34:16.405Z,98077.44
2022-09-15T17:37:18.592Z,98080.59
2022-09-15T17:40:21.541Z,98067.72
2022-09-15T17:43:25.793Z,98068.81
2022-09-15T17:46:28.017Z,98059.13
2022-09-15T17:49:30.305Z,98060.06
2022-09-15T17:52:32.525Z,98059.59
2022-09-15T17:55:34.692Z,98069.81
2022-09-15T17:58:36.967Z,98070.38
2022-09-15T18:01:39.512Z,98071.69
2022-09-15T18:04:41.742Z,98061.47
2022-09-15T18:07:44.087Z,98064.22
2022-09-15T18:10:46.757Z,98057.47
2022-09-15T18:13:48.992Z,98058.03
2022-09-15T18:16:51.233Z,98059.88
2022-09-15T18:19:53.605Z,98047.53
2022-09-15T18:22:56.876Z,98035.75
2022-09-15T18:25:59.056Z,98049.75
2022-09-15T18:29:02.150Z,98047.34
2022-09-15T18:32:04.821Z,98050.31
2022-09-15T18:35:09.148Z,98056.78
2022-09-15T18:38:12.066Z,98053.81
2022-09-15T18:41:14.334Z,98062.66
2022-09-15T18:44:16.554Z,98066.72
2022-09-15T18:47:18.750Z,98068.88
2022-09-15T18:50:23.323Z,98069.44
2022-09-15T18:53:25.597Z,98067.13
2022-09-15T18:56:28.097Z,98067.69
2022-09-15T18:59:30.315Z,98074.41
2022-09-15T19:02:32.827Z,98079.78
2022-09-15T19:05:35.378Z,98079.91
2022-09-15T19:08:37.886Z,98087.41
2022-09-15T19:11:40.104Z,98082.06
2022-09-15T19:14:46.036Z,98093.63
2022-09-15T19:17:48.960Z,98105.72
2022-09-15T19:20:51.147Z,98115.94
2022-09-15T19:23:57.279Z,98124.28
2022-09-15T19:27:05.023Z,98114.81
2022-09-15T19:30:10.217Z,98108.69
2022-09-15T19:33:12.676Z,98118.34
2022-09-15T19:36:28.099Z,98111.09
2022-09-15T19:39:31.141Z,98108.69
2022-09-15T19:42:33.341Z,98114.09
2022-09-15T19:45:35.570Z,98116.22
2022-09-15T19:48:40.872Z,98113.53
2022-09-15T19:51:46.135Z,98117.81
2022-09-15T19:54:48.346Z,98121.91
2022-09-15T19:57:50.510Z,98118.97
2022-09-15T20:00:57.048Z,98117.38
2022-09-15T20:04:01.984Z,98128.13
2022-09-15T20:07:04.351Z,98127.84
2022-09-15T20:10:06.788Z,98121.38
2022-09-15T20:13:08.936Z,98127.03
2022-09-15T20:16:16.115Z,98127.56
2022-09-15T20:19:18.550Z,98130.53
2022-09-15T20:22:20.846Z,98132.94
2022-09-15T20:25:26.162Z,98133.72
2022-09-15T20:28:29.624Z,98139.09
2022-09-15T20:31:34.668Z,98147.44
2022-09-15T20:34:36.857Z,98153.06
2022-09-15T20:37:39.339Z,98157.63
2022-09-15T20:40:41.557Z,98157.09
2022-09-15T20:43:44.190Z,98168.38
2022-09-15T20:46:48.487Z,98156.00
2022-09-15T20:49:50.652Z,98164.87
2022-09-15T20:52:53.250Z,98165.44
2022-09-15T20:55:55.781Z,98172.19
2022-09-15T20:58:59.914Z,98175.12
2022-09-15T21:02:04.279Z,98181.91
2022-09-15T21:05:06.671Z,98182.97
2022-09-15T21:08:11.890Z,98177.34
2022-09-15T21:11:14.919Z,98179.75
2022-09-15T21:14:17.122Z,98186.44
2022-09-15T21:17:19.538Z,98199.88
2022-09-15T21:20:21.703Z,98204.13
2022-09-15T21:23:25.047Z,98196.63
2022-09-15T21:26:32.928Z,98196.91
2022-09-15T21:29:35.848Z,98194.22
2022-09-15T21:32:38.834Z,98192.31
2022-09-15T21:35:42.011Z,98209.75
2022-09-15T21:38:44.716Z,98208.69
2022-09-15T21:41:46.980Z,98203.13
2022-09-15T21:44:49.157Z,98198.28
2022-09-15T21:47:51.309Z,98205.53
2022-09-15T21:50:54.225Z,98205.25
2022-09-15T21:53:58.407Z,98209.28
2022-09-15T21:57:00.654Z,98209.81
2022-09-15T22:00:04.234Z,98208.72
2022-09-15T22:03:06.907Z,98232.34
2022-09-15T22:06:12.907Z,98235.31
2022-09-15T22:09:16.811Z,98249.53
2022-09-15T22:12:18.918Z,98246.31
2022-09-15T22:15:21.083Z,98246.31
2022-09-15T22:18:23.294Z,98248.72
2022-09-15T22:21:27.340Z,98255.97
2022-09-15T22:24:29.961Z,98268.09
2022-09-15T22:27:32.096Z,98274.25
2022-09-15T22:30:34.233Z,98277.47
2022-09-15T22:33:37.031Z,98279.91
2022-09-15T22:36:39.183Z,98285.53
2022-09-15T22:39:58.454Z,98275.06
2022-09-15T22:43:01.230Z,98286.34
2022-09-15T22:46:03.749Z,98282.03
2022-09-15T22:49:06.020Z,98272.34
2022-09-15T22:52:08.757Z,98279.59
2022-09-15T22:55:10.910Z,98286.28
2022-09-15T22:58:13.032Z,98295.41
2022-09-15T23:01:23.997Z,98307.75
2022-09-15T23:04:26.201Z,98308.56
2022-09-15T23:07:28.447Z,98310.97
2022-09-15T23:10:31.086Z,98309.09
2022-09-15T23:13:34.094Z,98313.66
2022-09-15T23:16:36.418Z,98319.28
2022-09-15T23:19:38.595Z,98334.31
2022-09-15T23:22:40.784Z,98338.87
2022-09-15T23:25:43.468Z,98340.22
2022-09-15T23:28:45.688Z,98343.19
2022-09-15T23:31:47.917Z,98351.22
2022-09-15T23:34:50.132Z,98342.62
2022-09-15T23:37:52.490Z,98352.56
2022-09-15T23:40:54.630Z,98354.97
2022-09-15T23:43:59.598Z,98355.50
2022-09-15T23:47:01.848Z,98360.88
2022-09-15T23:50:04.392Z,98351.47
2022-09-15T23:53:06.681Z,98349.34
2022-09-15T23:56:08.871Z,98356.84
2022-09-15T23:59:11.014Z,98362.22
